Map

Track Data

SID SEASON NUMBER BASIN SUBBASIN NAME ISO_TIME NATURE LAT LON WMO_WIND WMO_PRES WMO_AGENCY TRACK_TYPE DIST2LAND LANDFALL IFLAG USA_AGENCY USA_ATCF_ID USA_LAT USA_LON USA_RECORD USA_STATUS USA_WIND USA_PRES USA_SSHS USA_R34_NE USA_R34_SE USA_R34_SW USA_R34_NW USA_R50_NE USA_R50_SE USA_R50_SW USA_R50_NW USA_R64_NE USA_R64_SE USA_R64_SW USA_R64_NW USA_POCI USA_ROCI USA_RMW USA_EYE TOKYO_LAT TOKYO_LON TOKYO_GRADE TOKYO_WIND TOKYO_PRES TOKYO_R50_DIR TOKYO_R50_LONG TOKYO_R50_SHORT TOKYO_R30_DIR TOKYO_R30_LONG TOKYO_R30_SHORT TOKYO_LAND CMA_LAT CMA_LON CMA_CAT CMA_WIND CMA_PRES HKO_LAT HKO_LON HKO_CAT HKO_WIND HKO_PRES NEWDELHI_LAT NEWDELHI_LON NEWDELHI_GRADE NEWDELHI_WIND NEWDELHI_PRES NEWDELHI_CI NEWDELHI_DP NEWDELHI_POCI REUNION_LAT REUNION_LON REUNION_TYPE REUNION_WIND REUNION_PRES REUNION_TNUM REUNION_CI REUNION_RMW REUNION_R34_NE REUNION_R34_SE REUNION_R34_SW REUNION_R34_NW REUNION_R50_NE REUNION_R50_SE REUNION_R50_SW REUNION_R50_NW REUNION_R64_NE REUNION_R64_SE REUNION_R64_SW REUNION_R64_NW BOM_LAT BOM_LON BOM_TYPE BOM_WIND BOM_PRES BOM_TNUM BOM_CI BOM_RMW BOM_R34_NE BOM_R34_SE BOM_R34_SW BOM_R34_NW BOM_R50_NE BOM_R50_SE BOM_R50_SW BOM_R50_NW BOM_R64_NE BOM_R64_SE BOM_R64_SW BOM_R64_NW BOM_ROCI BOM_POCI BOM_EYE BOM_POS_METHOD BOM_PRES_METHOD NADI_LAT NADI_LON NADI_CAT NADI_WIND NADI_PRES WELLINGTON_LAT WELLINGTON_LON WELLINGTON_WIND WELLINGTON_PRES DS824_LAT DS824_LON DS824_STAGE DS824_WIND DS824_PRES TD9636_LAT TD9636_LON TD9636_STAGE TD9636_WIND TD9636_PRES TD9635_LAT TD9635_LON TD9635_WIND TD9635_PRES TD9635_ROCI NEUMANN_LAT NEUMANN_LON NEUMANN_CLASS NEUMANN_WIND NEUMANN_PRES MLC_LAT MLC_LON MLC_CLASS MLC_WIND MLC_PRES USA_GUST BOM_GUST BOM_GUST_PER REUNION_GUST REUNION_GUST_PER USA_SEAHGT USA_SEARAD_NE USA_SEARAD_SE USA_SEARAD_SW USA_SEARAD_NW STORM_SPEED STORM_DIR
1873070S10448 1873 10 SI MM NOT_NAMED 1873-03-10 18:00:00 NR -9.90000 87.8000 main 1533 1533 __________O___ -1 -9.90000 87.8000 7 2 203
1873070S10448 1873 10 SI MM NOT_NAMED 1873-03-10 21:00:00 NR -9.98896 87.7593 main 1540 1540 __________P___ -1 -9.98896 87.7593 7 2 209
1873070S10448 1873 10 SI MM NOT_NAMED 1873-03-11 00:00:00 NR -10.0923 87.6949 main 1555 1555 __________P___ -1 -10.0923 87.6949 7 3 216
1873070S10448 1873 10 SI MM NOT_NAMED 1873-03-11 03:00:00 NR -10.2246 87.5831 main 1571 1571 __________P___ -1 -10.2246 87.5831 7 4 223
1873070S10448 1873 10 SI MM NOT_NAMED 1873-03-11 06:00:00 NR -10.4000 87.4000 main 1602 1602 __________O___ -1 -10.4000 87.4000 7 6 228
1873070S10448 1873 10 SI MM NOT_NAMED 1873-03-11 09:00:00 NR -10.6295 87.1299 main 1641 1641 __________P___ -1 -10.6295 87.1299 7 8 230
1873070S10448 1873 10 SI MM NOT_NAMED 1873-03-11 12:00:00 NR -10.9102 86.7898 main 1688 1688 __________P___ -1 -10.9102 86.7898 7 9 230
1873070S10448 1873 10 SI MM NOT_NAMED 1873-03-11 15:00:00 NR -11.2357 86.4048 main 1743 1743 __________P___ -1 -11.2357 86.4048 7 10 228
1873070S10448 1873 10 SI MM NOT_NAMED 1873-03-11 18:00:00 NR -11.6000 86.0000 main 1805 1805 __________O___ -1 -11.6000 86.0000 7 11 226
1873070S10448 1873 10 SI MM NOT_NAMED 1873-03-11 21:00:00 NR -12.0217 85.5825 main 1866 1866 __________P___ -1 -12.0217 85.5825 7 12 223
1873070S10448 1873 10 SI MM NOT_NAMED 1873-03-12 00:00:00 NR -12.4728 85.1560 main 1935 1935 __________P___ -1 -12.4728 85.1560 7 12 222
1873070S10448 1873 10 SI MM NOT_NAMED 1873-03-12 03:00:00 NR -12.9124 84.7513 main 1997 1997 __________P___ -1 -12.9124 84.7513 7 11 222
1873070S10448 1873 10 SI MM NOT_NAMED 1873-03-12 06:00:00 NR -13.3000 84.4000 main 2058 2058 __________O___ -1 -13.3000 84.4000 7 9 221
1873070S10448 1873 10 SI MM NOT_NAMED 1873-03-12 09:00:00 NR -13.5943 84.1338 main 2105 2105 __________P___ -1 -13.5943 84.1338 7 7 221
1873070S10448 1873 10 SI MM NOT_NAMED 1873-03-12 12:00:00 NR -13.8321 83.9243 main 2136 2136 __________P___ -1 -13.8321 83.9243 7 6 220
1873070S10448 1873 10 SI MM NOT_NAMED 1873-03-12 15:00:00 NR -14.0288 83.7527 main 2158 2158 __________P___ -1 -14.0288 83.7527 7 5 220
1873070S10448 1873 10 SI MM NOT_NAMED 1873-03-12 18:00:00 NR -14.2000 83.6000 main 2189 2189 __________O___ -1 -14.2000 83.6000 7 4 222
1873070S10448 1873 10 SI MM NOT_NAMED 1873-03-12 21:00:00 NR -14.3470 83.4555 main 2204 2204 __________P___ -1 -14.3470 83.4555 7 4 224
1873070S10448 1873 10 SI MM NOT_NAMED 1873-03-13 00:00:00 NR -14.4772 83.3218 main 2235 2235 __________P___ -1 -14.4772 83.3218 7 4 225
1873070S10448 1873 10 SI MM NOT_NAMED 1873-03-13 03:00:00 NR -14.6188 83.1773 main 2250 2250 __________P___ -1 -14.6188 83.1773 7 5 224
1873070S10448 1873 10 SI MM NOT_NAMED 1873-03-13 06:00:00 NR -14.8000 83.0000 main 2281 2281 __________O___ -1 -14.8000 83.0000 7 6 222
1873070S10448 1873 10 SI MM NOT_NAMED 1873-03-13 09:00:00 NR -15.0528 82.7731 main 2319 2319 __________P___ -1 -15.0528 82.7731 7 7 221
1873070S10448 1873 10 SI MM NOT_NAMED 1873-03-13 12:00:00 NR -15.3474 82.5099 main 2358 2358 __________P___ -1 -15.3474 82.5099 7 8 221
1873070S10448 1873 10 SI MM NOT_NAMED 1873-03-13 15:00:00 NR -15.6684 82.2167 main 2411 2411 __________P___ -1 -15.6684 82.2167 7 9 222
1873070S10448 1873 10 SI MM NOT_NAMED 1873-03-13 18:00:00 NR -16.0000 81.9000 main 2457 2457 __________O___ -1 -16.0000 81.9000 7 9 223
1873070S10448 1873 10 SI MM NOT_NAMED 1873-03-13 21:00:00 NR -16.3296 81.5658 main 2489 2488 __________P___ -1 -16.3296 81.5658 7 9 225
1873070S10448 1873 10 SI MM NOT_NAMED 1873-03-14 00:00:00 NR -16.6555 81.2184 main 2498 2459 __________P___ -1 -16.6555 81.2184 7 9 226
1873070S10448 1873 10 SI MM NOT_NAMED 1873-03-14 03:00:00 NR -16.9786 80.8618 main 2459 2411 __________P___ -1 -16.9786 80.8618 7 9 227
1873070S10448 1873 10 SI MM NOT_NAMED 1873-03-14 06:00:00 NR -17.3000 80.5000 main 2411 __________O___ -1 -17.3000 80.5000 7 9 227

About IBTrACS Database

This database is a web-friendly format of International Best Track Archive for Climate Stewardship (IBTrACS), a global best track data archive curated by NOAA dating back to 1842.

Updated: 2021-10-19